Mackinaw City, MI

8:15 AM EDT on October 31, 2014 (GMT -0400)
Mackinac Island | Change Station
CLOSE
Current Station
Airport
Location: Mackinac Island,
Elevation: 741 ft
Nearby Weather Stations
Active Advisory: Wind Advisory, Special Statement

Elev 741 ft 45.87 °N, 84.64 °W | Updated 15 minutes ago

Snow
Snow
32 °F
Feels Like 20 °F
N
22
Wind Variable Wind from NNE
Gusts 34 mph

Today
High -- | Low -- °F
--% Chance of Precip.
Yesterday
High -- | Low -- °F
Precip. -- in
8:17 AM 6:26 PM
First Quarter, 54% visible
Pressure 30.07 in
Visibility 1.8 miles
Clouds Overcast 800 ft
Windchill 20 °F
Dew Point 32 °F
Humidity 100%
Rainfall 0.00 in
Snow Depth Not available.
UV 0 out of 12
Pollen .10 out of 12
Air Quality Not available.
Flu Activity Not available.
METAR KMCD 311200Z AUTO 02019G30KT 1 3/4SM -SN OVC008 00/00 A3007 RMK AO2 T00000000

More Conditions Fewer Conditions

Pressure 30.07 in
Visibility 1.8 miles
Clouds Overcast 800 ft
Windchill 20 °F
Dew Point 32 °F
Humidity 100%
Rainfall 0.00 in
Snow Depth Not available.
UV 0 out of 12
Pollen .10 out of 12
Air Quality Not available.
Flu Activity Not available.
METAR KMCD 311200Z AUTO 02019G30KT 1 3/4SM -SN OVC008 00/00 A3007 RMK AO2 T00000000

More Conditions Fewer Conditions

Nowcast | as of 8:00 am EDT on October 31, 2014

Wind Advisory in effect until 8 PM EDT this evening... At 9 am...rain and snow. Temperature 34. North winds 20 mph with gusts to 40 mph. At 11 am...rain and snow. Temperature 34. North winds 22 mph with gusts to 40 mph. At 1 PM...rain and snow. Temperature 35. North winds 21 mph with gusts to 35 mph. At 3 PM...mostly cloudy. Chance of snow. Temperature 35. North winds 19 mph with gusts to 35 mph.

×

10-Day Weather Forecast

Almanac

Astronomy

Oct. 31, 2014 Rise Set
Actual Time
Civil Twilight
Nautical Twilight
Astronomical Twilight
Moon
Length of Visible Light
Length of Day
Tomorrow will be .
, % of the Moon is Illuminated

Today's Extremes

State Highs State Lows

Community

WunderPhotos

Upload Photos

1,766,589 photos uploaded!

WunderBlogs® & News

Nearby

Air Quality

  Air Quality AQ Index Pollutant
Not available.

Snow Depth

Station Depth Elevation

Earthquake Activity

City Distance Mag. Time & Date
Minimum magnitude displayed is 2.5.

Coastal Water Temperatures

Place Temperature

Nearby Weather Stations